Time;durP1;ratioP1;P1;durP2;ratioP2;P2;SDS_P1;SDS_P2;PMS_P1;PMS_P2;Temp;Humidity;BMP_temperature;BMP_pressure;BME280_temperature;BME280_humidity;BME280_pressure;Samples;Min_cycle;Max_cycle;Signal;HPM_P1;HPM_P2
2021/12/29 00:02:05;;;;;;;53.05;20.38;;;;;;;;;;4999371;28;20029;-67
2021/12/29 00:04:33;;;;;;;51.45;19.65;;;;;;;;;;5018247;28;20072;-66
2021/12/29 00:07:01;;;;;;;45.78;18.45;;;;;;;;;;5018156;28;20021;-67
2021/12/29 00:09:32;;;;;;;47.05;18.20;;;;;;;;;;5018162;28;20030;-67
2021/12/29 00:11:59;;;;;;;45.90;17.38;;;;;;;;;;5018080;28;20022;-67
2021/12/29 00:14:27;;;;;;;43.67;19.52;;;;;;;;;;5017987;28;20034;-67
2021/12/29 00:16:56;;;;;;;40.50;18.73;;;;;;;;;;5017884;28;20141;-67
2021/12/29 00:19:23;;;;;;;45.42;18.75;;;;;;;;;;5017899;28;20318;-66
2021/12/29 00:21:51;;;;;;;37.67;16.00;;;;;;;;;;5018000;28;20054;-66
2021/12/29 00:24:18;;;;;;;39.35;17.85;;;;;;;;;;5017839;28;20030;-67
2021/12/29 00:26:46;;;;;;;41.95;17.33;;;;;;;;;;5017872;28;20426;-67
2021/12/29 00:29:14;;;;;;;38.10;17.55;;;;;;;;;;5017531;28;20049;-68
2021/12/29 00:31:40;;;;;;;46.95;22.63;;;;;;;;;;5017474;28;20025;-67
2021/12/29 00:34:08;;;;;;;50.80;24.98;;;;;;;;;;5017706;28;20414;-67
2021/12/29 00:36:35;;;;;;;56.92;31.23;;;;;;;;;;5017075;28;20022;-66
2021/12/29 00:39:03;;;;;;;54.80;27.02;;;;;;;;;;5017279;28;20029;-67
2021/12/29 00:41:30;;;;;;;54.85;23.05;;;;;;;;;;5017546;28;20041;-67
2021/12/29 00:43:58;;;;;;;70.50;38.08;;;;;;;;;;5017559;28;20030;-67
2021/12/29 00:46:26;;;;;;;92.13;39.47;;;;;;;;;;5016425;28;20049;-67
2021/12/29 00:48:53;;;;;;;64.70;31.35;;;;;;;;;;5017268;28;20022;-67
2021/12/29 00:51:21;;;;;;;54.53;24.92;;;;;;;;;;5017242;28;20030;-66
2021/12/29 00:53:49;;;;;;;57.90;25.45;;;;;;;;;;5016228;28;20018;-67
2021/12/29 00:56:17;;;;;;;83.43;37.60;;;;;;;;;;5016200;28;20403;-67
2021/12/29 00:58:44;;;;;;;70.07;32.55;;;;;;;;;;5017127;28;20030;-66
2021/12/29 01:01:12;;;;;;;77.95;34.80;;;;;;;;;;5015744;28;20029;-67
2021/12/29 01:03:41;;;;;;;83.38;30.60;;;;;;;;;;5016681;28;20399;-67
2021/12/29 01:06:08;;;;;;;88.80;30.67;;;;;;;;;;5015545;28;20036;-67
2021/12/29 01:08:37;;;;;;;64.05;29.38;;;;;;;;;;5016746;28;20437;-66
2021/12/29 01:11:06;;;;;;;81.22;31.38;;;;;;;;;;5016733;28;20029;-66
2021/12/29 01:13:35;;;;;;;102.97;40.00;;;;;;;;;;5015852;28;20025;-67
2021/12/29 01:18:37;;;;;;;96.00;39.30;;;;;;;;;;5016893;28;20119;-67
2021/12/29 01:21:04;;;;;;;93.88;39.05;;;;;;;;;;5016948;28;20114;-67
2021/12/29 01:23:35;;;;;;;88.63;34.95;;;;;;;;;;5015479;28;20463;-67
2021/12/29 01:26:03;;;;;;;67.22;26.77;;;;;;;;;;5016735;28;20057;-67
2021/12/29 01:28:31;;;;;;;64.18;25.88;;;;;;;;;;5016394;28;20029;-67
2021/12/29 01:30:58;;;;;;;73.38;26.88;;;;;;;;;;5016470;28;20323;-71
2021/12/29 01:33:26;;;;;;;57.80;25.08;;;;;;;;;;5015426;28;20358;-71
2021/12/29 01:35:56;;;;;;;65.72;26.70;;;;;;;;;;5016560;28;20050;-71
2021/12/29 01:38:24;;;;;;;77.72;34.03;;;;;;;;;;5016577;28;20350;-68
2021/12/29 01:40:52;;;;;;;89.65;34.55;;;;;;;;;;5016454;28;20339;-69
2021/12/29 01:43:20;;;;;;;87.40;37.72;;;;;;;;;;5016417;28;20034;-73
2021/12/29 01:45:48;;;;;;;92.32;37.38;;;;;;;;;;5016604;28;20042;-70
2021/12/29 01:48:16;;;;;;;112.95;44.05;;;;;;;;;;5015097;28;20026;-70
2021/12/29 01:50:48;;;;;;;115.03;46.42;;;;;;;;;;5016335;28;20014;-71
2021/12/29 01:53:23;;;;;;;97.82;43.10;;;;;;;;;;5015048;28;20022;-70
2021/12/29 01:55:51;;;;;;;114.55;44.80;;;;;;;;;;5016759;28;20018;-72
2021/12/29 01:58:19;;;;;;;109.97;42.95;;;;;;;;;;4978314;28;20057;-71
2021/12/29 02:00:47;;;;;;;99.57;39.75;;;;;;;;;;4994770;28;20041;-68
2021/12/29 02:03:14;;;;;;;103.78;41.85;;;;;;;;;;4989443;28;20101;-71
2021/12/29 02:05:42;;;;;;;92.45;39.55;;;;;;;;;;4983320;28;20088;-69
2021/12/29 02:08:11;;;;;;;94.97;42.55;;;;;;;;;;4975668;28;20039;-70
2021/12/29 02:10:45;;;;;;;99.20;39.05;;;;;;;;;;4989574;28;20461;-72
2021/12/29 02:13:13;;;;;;;107.28;42.78;;;;;;;;;;4994150;28;20026;-70
2021/12/29 02:15:41;;;;;;;107.97;40.67;;;;;;;;;;4992462;28;20109;-70
2021/12/29 02:18:19;;;;;;;114.45;44.42;;;;;;;;;;4994739;28;20034;-70
2021/12/29 02:20:49;;;;;;;117.72;43.60;;;;;;;;;;4993174;28;20451;-70
2021/12/29 02:23:28;;;;;;;276.77;107.82;;;;;;;;;;4974952;28;20031;-70
2021/12/29 02:25:57;;;;;;;371.88;147.40;;;;;;;;;;4992683;28;20505;-68
2021/12/29 02:28:29;;;;;;;282.10;114.80;;;;;;;;;;4993904;28;20141;-68
2021/12/29 02:30:59;;;;;;;204.40;81.78;;;;;;;;;;4993982;28;20057;-71
2021/12/29 02:33:27;;;;;;;202.20;83.93;;;;;;;;;;4989730;28;20027;-70
2021/12/29 02:35:55;;;;;;;147.30;57.28;;;;;;;;;;4994242;28;20023;-69
2021/12/29 02:38:28;;;;;;;130.02;42.17;;;;;;;;;;4994030;28;20023;-69
2021/12/29 02:40:58;;;;;;;93.82;33.35;;;;;;;;;;4994110;28;20034;-70
2021/12/29 02:43:26;;;;;;;101.32;35.83;;;;;;;;;;5015686;28;20029;-72
2021/12/29 02:45:58;;;;;;;85.55;32.42;;;;;;;;;;4994027;28;20042;-71
2021/12/29 02:48:31;;;;;;;88.35;35.78;;;;;;;;;;4977922;28;20030;-72
2021/12/29 02:51:00;;;;;;;77.35;32.15;;;;;;;;;;4994014;28;20030;-76
2021/12/29 02:53:28;;;;;;;87.07;30.20;;;;;;;;;;4994178;28;20054;-72
2021/12/29 02:55:56;;;;;;;73.47;25.70;;;;;;;;;;4994107;28;20073;-73
2021/12/29 02:58:24;;;;;;;83.45;29.35;;;;;;;;;;4977635;28;20109;-71
2021/12/29 03:00:53;;;;;;;137.63;49.38;;;;;;;;;;4995249;28;20038;-70
2021/12/29 03:03:25;;;;;;;127.65;50.10;;;;;;;;;;4997668;28;20033;-69
2021/12/29 03:05:53;;;;;;;159.23;60.60;;;;;;;;;;4997633;28;20061;-71
2021/12/29 03:08:25;;;;;;;171.55;59.17;;;;;;;;;;4981074;28;20026;-70
2021/12/29 03:10:53;;;;;;;153.27;56.25;;;;;;;;;;4980810;28;20118;-71
2021/12/29 03:13:22;;;;;;;172.48;63.00;;;;;;;;;;4980859;28;20105;-72
2021/12/29 03:15:51;;;;;;;158.48;61.00;;;;;;;;;;4981036;28;20031;-71
2021/12/29 03:18:18;;;;;;;152.32;56.92;;;;;;;;;;4997260;28;20117;-71
2021/12/29 03:20:46;;;;;;;146.48;54.63;;;;;;;;;;4997235;28;20152;-70
2021/12/29 03:23:14;;;;;;;137.43;55.83;;;;;;;;;;4980704;28;20439;-70
2021/12/29 03:25:42;;;;;;;177.90;68.95;;;;;;;;;;4996981;28;20088;-69
2021/12/29 03:28:13;;;;;;;274.15;105.55;;;;;;;;;;4996598;28;20124;-72
2021/12/29 03:30:41;;;;;;;288.10;106.18;;;;;;;;;;4996716;28;20039;-71
2021/12/29 03:33:09;;;;;;;314.70;119.38;;;;;;;;;;4997130;28;20114;-71
2021/12/29 03:35:50;;;;;;;328.08;120.65;;;;;;;;;;4997419;28;20443;-71
2021/12/29 03:38:22;;;;;;;256.25;96.03;;;;;;;;;;4997905;28;20034;-70
2021/12/29 03:40:53;;;;;;;135.02;51.95;;;;;;;;;;4997751;28;20027;-70
2021/12/29 03:43:21;;;;;;;188.13;75.85;;;;;;;;;;4997201;28;20034;-71
2021/12/29 03:45:52;;;;;;;190.93;73.40;;;;;;;;;;4998729;28;20044;-71
2021/12/29 03:48:21;;;;;;;218.95;82.50;;;;;;;;;;4998605;28;20375;-69
2021/12/29 03:50:49;;;;;;;232.30;83.80;;;;;;;;;;4998596;28;20031;-69
2021/12/29 03:53:17;;;;;;;218.70;82.90;;;;;;;;;;4998492;28;20108;-75
2021/12/29 03:55:45;;;;;;;208.43;79.45;;;;;;;;;;4997114;28;20030;-73
2021/12/29 03:58:13;;;;;;;142.05;58.13;;;;;;;;;;4997635;28;20343;-71
2021/12/29 04:00:41;;;;;;;120.60;51.70;;;;;;;;;;4998605;28;20026;-71
2021/12/29 04:03:08;;;;;;;115.68;45.35;;;;;;;;;;4998237;28;20265;-72
2021/12/29 04:05:36;;;;;;;157.75;51.33;;;;;;;;;;4998463;28;20026;-72
2021/12/29 04:08:03;;;;;;;247.30;97.32;;;;;;;;;;4997242;28;20030;-71
2021/12/29 04:10:31;;;;;;;225.75;91.07;;;;;;;;;;4998060;28;20023;-73
2021/12/29 04:12:59;;;;;;;272.20;114.78;;;;;;;;;;4998616;28;20030;-74
2021/12/29 04:15:29;;;;;;;267.05;115.13;;;;;;;;;;4999257;28;20033;-69
2021/12/29 04:18:03;;;;;;;218.73;95.13;;;;;;;;;;4998333;28;20088;-69
2021/12/29 04:23:18;;;;;;;227.90;95.65;;;;;;;;;;4998333;28;20041;-71
2021/12/29 04:25:49;;;;;;;233.27;99.20;;;;;;;;;;4998393;28;20101;-71
2021/12/29 04:28:20;;;;;;;234.63;100.03;;;;;;;;;;5016511;28;20057;-72
2021/12/29 04:30:48;;;;;;;302.23;129.55;;;;;;;;;;5018136;28;20046;-72
2021/12/29 04:33:16;;;;;;;263.48;108.80;;;;;;;;;;5018041;28;20018;-71
2021/12/29 04:35:44;;;;;;;282.15;124.97;;;;;;;;;;5016768;28;20060;-71
2021/12/29 04:38:12;;;;;;;275.88;123.50;;;;;;;;;;5016783;28;20033;-78
2021/12/29 04:40:40;;;;;;;328.73;140.20;;;;;;;;;;5016169;28;20030;-71
2021/12/29 04:43:10;;;;;;;349.35;144.32;;;;;;;;;;5016255;28;20446;-76
2021/12/29 04:45:38;;;;;;;350.33;143.80;;;;;;;;;;5026097;28;20022;-76
2021/12/29 04:48:13;;;;;;;205.45;83.60;;;;;;;;;;5017511;28;20319;-74
2021/12/29 04:50:50;;;;;;;84.90;36.65;;;;;;;;;;5018493;28;20583;-71
2021/12/29 04:53:18;;;;;;;75.65;33.05;;;;;;;;;;5017222;28;20296;-71
2021/12/29 04:55:49;;;;;;;85.65;36.83;;;;;;;;;;5016904;28;20018;-69
2021/12/29 04:58:18;;;;;;;79.00;36.53;;;;;;;;;;5017120;28;20109;-68
2021/12/29 05:00:46;;;;;;;82.82;32.85;;;;;;;;;;5017477;28;20022;-70
2021/12/29 05:03:14;;;;;;;75.70;30.23;;;;;;;;;;5016951;28;20076;-68
2021/12/29 05:08:24;;;;;;;89.70;32.10;;;;;;;;;;5017893;28;20021;-72
2021/12/29 05:08:45;;;;;;;100.80;35.10;;;;;;;;;;5017373;28;20026;-73
2021/12/29 05:11:13;;;;;;;116.47;42.92;;;;;;;;;;5016227;28;20028;-72
2021/12/29 05:13:42;;;;;;;60.60;25.02;;;;;;;;;;5015515;28;20403;-72
2021/12/29 05:16:10;;;;;;;57.88;24.02;;;;;;;;;;5017012;28;20030;-72
2021/12/29 05:18:38;;;;;;;66.95;25.27;;;;;;;;;;5015963;28;20109;-73
2021/12/29 05:21:07;;;;;;;59.35;24.38;;;;;;;;;;5017025;28;20104;-72
2021/12/29 05:23:35;;;;;;;49.20;22.70;;;;;;;;;;5015884;28;20113;-72
2021/12/29 05:26:03;;;;;;;55.90;24.67;;;;;;;;;;5015747;28;20026;-72
2021/12/29 05:28:31;;;;;;;61.67;28.75;;;;;;;;;;5015758;28;20038;-72
2021/12/29 05:30:58;;;;;;;77.20;34.88;;;;;;;;;;5015621;28;20117;-72
2021/12/29 05:33:26;;;;;;;84.38;37.40;;;;;;;;;;5016429;28;20470;-69
2021/12/29 05:36:01;;;;;;;75.35;33.92;;;;;;;;;;5015691;28;20026;-73
2021/12/29 05:38:29;;;;;;;102.32;39.75;;;;;;;;;;5016338;28;20427;-72
2021/12/29 05:40:56;;;;;;;88.72;35.15;;;;;;;;;;5015932;28;20104;-71
2021/12/29 05:43:24;;;;;;;70.57;30.55;;;;;;;;;;5015882;28;20026;-71
2021/12/29 05:45:51;;;;;;;87.70;35.65;;;;;;;;;;5016133;28;20435;-72
2021/12/29 05:48:19;;;;;;;63.35;25.38;;;;;;;;;;5015873;28;20025;-72
2021/12/29 05:50:46;;;;;;;61.58;21.98;;;;;;;;;;5016376;28;20049;-70
2021/12/29 05:53:14;;;;;;;62.47;23.80;;;;;;;;;;5016282;28;20437;-72
2021/12/29 05:55:42;;;;;;;53.25;19.85;;;;;;;;;;5015042;28;20037;-73
2021/12/29 05:58:10;;;;;;;56.13;19.70;;;;;;;;;;5015120;28;20033;-71
2021/12/29 06:00:39;;;;;;;52.00;19.95;;;;;;;;;;5016073;28;20441;-72
2021/12/29 06:03:07;;;;;;;62.88;22.23;;;;;;;;;;5016254;28;20022;-73
2021/12/29 06:05:35;;;;;;;63.85;22.20;;;;;;;;;;5016698;28;20022;-72
2021/12/29 06:08:02;;;;;;;48.15;19.70;;;;;;;;;;5016044;28;20057;-73
2021/12/29 06:10:30;;;;;;;84.82;29.10;;;;;;;;;;5016731;28;20022;-72
2021/12/29 06:12:59;;;;;;;74.10;26.77;;;;;;;;;;5018787;28;20021;-72
2021/12/29 06:15:28;;;;;;;68.22;24.20;;;;;;;;;;5014522;28;20374;-72
2021/12/29 06:17:55;;;;;;;64.60;24.90;;;;;;;;;;5014048;28;20093;-72
2021/12/29 06:23:13;;;;;;;43.42;18.25;;;;;;;;;;5269484;22;20058;-77
2021/12/29 06:25:41;;;;;;;36.40;14.13;;;;;;;;;;5016168;28;20033;-73
2021/12/29 06:28:09;;;;;;;29.60;10.75;;;;;;;;;;5014973;28;20033;-72
2021/12/29 06:30:36;;;;;;;30.73;10.32;;;;;;;;;;5014785;28;20022;-73
2021/12/29 06:33:04;;;;;;;43.45;11.80;;;;;;;;;;5015952;28;20028;-73
2021/12/29 06:35:32;;;;;;;36.65;13.52;;;;;;;;;;5015414;28;20033;-73
2021/12/29 06:37:59;;;;;;;37.10;12.18;;;;;;;;;;5018828;28;20030;-72
2021/12/29 06:40:27;;;;;;;24.45;8.82;;;;;;;;;;5018695;28;20065;-73
2021/12/29 06:42:55;;;;;;;26.38;8.90;;;;;;;;;;5018614;28;20026;-73
2021/12/29 06:45:22;;;;;;;28.27;9.57;;;;;;;;;;5018612;28;20053;-73
2021/12/29 06:47:50;;;;;;;37.63;11.98;;;;;;;;;;5018573;28;20034;-72
2021/12/29 06:50:18;;;;;;;20.33;8.52;;;;;;;;;;5018787;28;20037;-73
2021/12/29 06:52:46;;;;;;;21.67;8.75;;;;;;;;;;5018487;28;20060;-73
2021/12/29 06:55:14;;;;;;;18.70;6.75;;;;;;;;;;5018438;28;20411;-73
2021/12/29 06:57:41;;;;;;;18.73;5.45;;;;;;;;;;5018366;28;20371;-73
2021/12/29 07:00:09;;;;;;;16.58;5.95;;;;;;;;;;5019482;28;20260;-73
2021/12/29 07:02:37;;;;;;;15.32;5.65;;;;;;;;;;5018271;28;20022;-73
2021/12/29 07:05:05;;;;;;;24.25;5.60;;;;;;;;;;5018232;28;20029;-73
2021/12/29 07:07:32;;;;;;;17.45;6.30;;;;;;;;;;5018141;28;20030;-72
2021/12/29 07:10:00;;;;;;;20.88;7.30;;;;;;;;;;5019278;28;20080;-72
2021/12/29 07:12:27;;;;;;;22.45;7.93;;;;;;;;;;5020248;28;20037;-73
2021/12/29 07:14:55;;;;;;;22.92;9.35;;;;;;;;;;5035029;28;20318;-73
2021/12/29 07:17:22;;;;;;;26.20;8.80;;;;;;;;;;5037738;28;20029;-74
2021/12/29 07:19:50;;;;;;;20.95;8.90;;;;;;;;;;5038643;28;20040;-72
2021/12/29 07:22:16;;;;;;;25.75;9.50;;;;;;;;;;5037220;28;20045;-72
2021/12/29 07:24:44;;;;;;;35.75;10.55;;;;;;;;;;5037371;28;20036;-72
2021/12/29 07:27:12;;;;;;;54.13;18.92;;;;;;;;;;5038573;28;20030;-72
2021/12/29 07:29:39;;;;;;;36.70;14.48;;;;;;;;;;5037272;28;20033;-72
2021/12/29 07:32:07;;;;;;;28.40;11.52;;;;;;;;;;5038275;28;20025;-72
2021/12/29 07:34:34;;;;;;;42.35;15.90;;;;;;;;;;5037373;28;20372;-72
2021/12/29 07:37:02;;;;;;;41.40;15.00;;;;;;;;;;5037836;28;20022;-72
2021/12/29 07:39:30;;;;;;;29.15;10.70;;;;;;;;;;5037498;28;20426;-72
2021/12/29 07:41:58;;;;;;;37.97;12.48;;;;;;;;;;5038482;28;20033;-72
2021/12/29 07:44:27;;;;;;;45.22;13.80;;;;;;;;;;5037510;28;20026;-69
2021/12/29 07:46:57;;;;;;;34.03;14.88;;;;;;;;;;5037757;28;20101;-71
2021/12/29 07:49:25;;;;;;;28.83;11.02;;;;;;;;;;5037345;28;20036;-71
2021/12/29 07:51:54;;;;;;;33.38;13.68;;;;;;;;;;5023292;28;20021;-70
2021/12/29 07:54:22;;;;;;;34.05;13.98;;;;;;;;;;5022593;28;20033;-70
2021/12/29 07:56:50;;;;;;;25.30;10.20;;;;;;;;;;5016362;28;20045;-68
2021/12/29 07:59:19;;;;;;;21.52;8.75;;;;;;;;;;5014081;28;20026;-72
2021/12/29 08:01:46;;;;;;;18.90;6.70;;;;;;;;;;5013840;28;20038;-72
2021/12/29 08:04:20;;;;;;;12.18;4.45;;;;;;;;;;4998723;28;20030;-70
2021/12/29 08:06:48;;;;;;;12.68;5.30;;;;;;;;;;4998197;28;20022;-73
2021/12/29 08:09:16;;;;;;;14.50;5.53;;;;;;;;;;5013498;28;20184;-72
2021/12/29 08:11:43;;;;;;;15.38;6.18;;;;;;;;;;4998289;28;20451;-73
2021/12/29 08:14:11;;;;;;;19.05;6.30;;;;;;;;;;5018708;28;20041;-71
2021/12/29 08:16:39;;;;;;;21.65;6.15;;;;;;;;;;4999442;28;20090;-72
2021/12/29 08:19:06;;;;;;;20.17;5.93;;;;;;;;;;4998355;28;20125;-72
2021/12/29 08:21:35;;;;;;;13.73;5.70;;;;;;;;;;5000058;28;20382;-72
2021/12/29 08:24:03;;;;;;;16.33;6.05;;;;;;;;;;5006692;28;20030;-73
2021/12/29 08:26:30;;;;;;;13.57;5.22;;;;;;;;;;5009325;28;20044;-76
2021/12/29 08:29:01;;;;;;;13.70;5.90;;;;;;;;;;5004540;28;20029;-75
2021/12/29 08:31:39;;;;;;;22.35;5.60;;;;;;;;;;5006168;28;20498;-76
2021/12/29 08:34:09;;;;;;;29.83;7.13;;;;;;;;;;5005860;28;20029;-75
2021/12/29 08:36:43;;;;;;;28.50;13.68;;;;;;;;;;5005591;28;20034;-77
2021/12/29 08:39:14;;;;;;;22.88;9.35;;;;;;;;;;5007180;28;20034;-77
2021/12/29 08:41:43;;;;;;;26.77;10.75;;;;;;;;;;5004614;28;20120;-75
2021/12/29 08:44:20;;;;;;;31.90;9.88;;;;;;;;;;5005566;28;20042;-75
2021/12/29 08:46:48;;;;;;;191.77;103.18;;;;;;;;;;5005159;28;20029;-77
2021/12/29 08:49:18;;;;;;;277.17;144.93;;;;;;;;;;5002827;28;20069;-78
2021/12/29 08:51:47;;;;;;;338.40;168.43;;;;;;;;;;4988817;28;20034;-79
2021/12/29 08:54:14;;;;;;;393.98;208.52;;;;;;;;;;5000337;28;20070;-79
2021/12/29 08:56:44;;;;;;;443.52;237.48;;;;;;;;;;4979756;28;20061;-74
2021/12/29 08:59:13;;;;;;;409.83;207.68;;;;;;;;;;4978521;28;20041;-74
2021/12/29 09:01:41;;;;;;;391.05;207.65;;;;;;;;;;4979533;28;20038;-75
2021/12/29 09:04:08;;;;;;;448.42;236.07;;;;;;;;;;4979493;28;20033;-78
2021/12/29 09:06:36;;;;;;;412.88;224.45;;;;;;;;;;4996081;28;20045;-78
2021/12/29 09:09:04;;;;;;;457.70;249.07;;;;;;;;;;4980344;28;20076;-78
2021/12/29 09:11:32;;;;;;;436.35;232.73;;;;;;;;;;4996305;28;20027;-74
2021/12/29 09:14:00;;;;;;;467.20;252.52;;;;;;;;;;5018043;28;20117;-72
2021/12/29 09:16:28;;;;;;;500.92;273.60;;;;;;;;;;5017759;28;20034;-75
2021/12/29 09:18:56;;;;;;;483.10;267.70;;;;;;;;;;5015126;28;20022;-75
2021/12/29 09:21:26;;;;;;;474.00;262.65;;;;;;;;;;4998957;28;20038;-75
2021/12/29 09:23:53;;;;;;;455.23;248.70;;;;;;;;;;5014212;28;20041;-73
2021/12/29 09:26:21;;;;;;;442.92;239.57;;;;;;;;;;4998892;28;20042;-73
2021/12/29 09:28:49;;;;;;;438.98;237.98;;;;;;;;;;5000017;28;20243;-76
2021/12/29 09:31:20;;;;;;;441.15;233.63;;;;;;;;;;5003704;28;20021;-74
2021/12/29 09:33:48;;;;;;;420.55;233.77;;;;;;;;;;5015057;28;20026;-75
2021/12/29 09:36:15;;;;;;;442.60;240.13;;;;;;;;;;4998518;28;20046;-71
2021/12/29 09:38:43;;;;;;;451.45;257.02;;;;;;;;;;5014610;28;20523;-73
2021/12/29 09:41:15;;;;;;;474.67;270.85;;;;;;;;;;5013196;28;20100;-75
2021/12/29 09:43:44;;;;;;;453.77;259.95;;;;;;;;;;5012757;28;20065;-72
2021/12/29 09:46:12;;;;;;;430.15;245.68;;;;;;;;;;5008158;28;20038;-72
2021/12/29 09:48:40;;;;;;;404.50;231.05;;;;;;;;;;5012243;28;20439;-70
2021/12/29 09:51:11;;;;;;;375.73;210.10;;;;;;;;;;4996936;28;20022;-72
2021/12/29 09:53:39;;;;;;;316.40;161.45;;;;;;;;;;5012292;28;20192;-73
2021/12/29 09:56:09;;;;;;;217.88;107.32;;;;;;;;;;4996931;28;20026;-71
2021/12/29 09:58:37;;;;;;;143.65;73.85;;;;;;;;;;5012176;28;20061;-72
2021/12/29 10:01:06;;;;;;;132.52;63.45;;;;;;;;;;5015675;28;20419;-75
2021/12/29 10:03:34;;;;;;;115.03;58.35;;;;;;;;;;5016132;28;20053;-73
2021/12/29 10:06:04;;;;;;;129.93;66.97;;;;;;;;;;5016545;28;20096;-73
2021/12/29 10:08:38;;;;;;;149.10;64.65;;;;;;;;;;4998856;28;20116;-74
2021/12/29 10:11:08;;;;;;;121.85;55.60;;;;;;;;;;5014910;28;20028;-71
2021/12/29 10:13:37;;;;;;;102.38;47.95;;;;;;;;;;5015419;28;20054;-72
2021/12/29 10:16:09;;;;;;;94.53;43.22;;;;;;;;;;5016395;28;20095;-72
2021/12/29 10:18:43;;;;;;;70.03;32.17;;;;;;;;;;5015100;28;20490;-72
2021/12/29 10:21:15;;;;;;;66.45;30.42;;;;;;;;;;5015114;28;20034;-72
2021/12/29 10:23:44;;;;;;;73.72;34.83;;;;;;;;;;5015650;28;20077;-73
2021/12/29 10:26:16;;;;;;;69.35;35.38;;;;;;;;;;5015100;28;20026;-72
2021/12/29 10:28:47;;;;;;;78.05;37.20;;;;;;;;;;5016563;28;20030;-73
2021/12/29 10:31:18;;;;;;;81.78;39.03;;;;;;;;;;5015051;28;20029;-71
2021/12/29 10:33:47;;;;;;;89.53;42.90;;;;;;;;;;5016437;28;20454;-71
2021/12/29 10:36:34;;;;;;;91.07;43.22;;;;;;;;;;5016270;28;20097;-72
2021/12/29 10:39:09;;;;;;;90.07;43.35;;;;;;;;;;5016102;28;20072;-70
2021/12/29 10:41:56;;;;;;;86.70;42.55;;;;;;;;;;5015184;28;20411;-69
2021/12/29 10:44:30;;;;;;;83.47;44.30;;;;;;;;;;5015985;28;20366;-76
2021/12/29 10:47:00;;;;;;;92.20;47.05;;;;;;;;;;5014878;28;20030;-75
2021/12/29 10:49:28;;;;;;;101.70;50.42;;;;;;;;;;5016065;28;20084;-77
2021/12/29 10:51:59;;;;;;;100.28;50.42;;;;;;;;;;5016131;28;20101;-73
2021/12/29 10:54:28;;;;;;;111.35;52.67;;;;;;;;;;5015977;28;20030;-75
2021/12/29 10:57:06;;;;;;;146.80;70.65;;;;;;;;;;5014682;28;20037;-72
2021/12/29 10:59:35;;;;;;;204.32;95.93;;;;;;;;;;5014586;28;20141;-75
2021/12/29 11:02:04;;;;;;;215.93;107.82;;;;;;;;;;5015494;28;20418;-71
2021/12/29 11:04:32;;;;;;;204.57;105.22;;;;;;;;;;5014509;28;20026;-72
2021/12/29 11:07:01;;;;;;;202.48;102.65;;;;;;;;;;5015520;28;20057;-72
2021/12/29 11:09:32;;;;;;;206.68;104.00;;;;;;;;;;5015432;28;20328;-72
2021/12/29 11:12:01;;;;;;;205.02;102.47;;;;;;;;;;5015583;28;20022;-72
2021/12/29 11:14:30;;;;;;;206.88;102.32;;;;;;;;;;5015510;28;20142;-71
2021/12/29 11:17:20;;;;;;;206.93;103.95;;;;;;;;;;5015526;28;20420;-71
2021/12/29 11:19:56;;;;;;;202.50;99.35;;;;;;;;;;5015398;28;20089;-71
2021/12/29 11:22:24;;;;;;;193.07;98.10;;;;;;;;;;5016572;28;20435;-72
2021/12/29 11:24:55;;;;;;;203.07;99.43;;;;;;;;;;5019263;28;20095;-71
2021/12/29 11:27:23;;;;;;;205.80;103.57;;;;;;;;;;5019181;28;20094;-72
2021/12/29 11:30:03;;;;;;;213.05;102.82;;;;;;;;;;5018853;28;20029;-71
2021/12/29 11:32:44;;;;;;;204.75;101.90;;;;;;;;;;5018924;28;20018;-71
2021/12/29 11:35:15;;;;;;;206.02;103.80;;;;;;;;;;5019502;28;20018;-71
2021/12/29 11:37:55;;;;;;;218.13;106.00;;;;;;;;;;5018708;28;20080;-71
2021/12/29 11:40:27;;;;;;;218.77;106.18;;;;;;;;;;5019733;28;20492;-71
2021/12/29 11:42:55;;;;;;;232.18;110.80;;;;;;;;;;5018378;28;20022;-71
2021/12/29 11:45:23;;;;;;;213.75;103.82;;;;;;;;;;5019387;28;20080;-71
2021/12/29 11:47:51;;;;;;;219.93;106.68;;;;;;;;;;5019031;28;20026;-71
2021/12/29 11:50:34;;;;;;;232.40;113.00;;;;;;;;;;5018808;28;20053;-71
2021/12/29 11:53:19;;;;;;;227.52;115.63;;;;;;;;;;5017396;28;20105;-71
2021/12/29 11:55:53;;;;;;;234.70;111.63;;;;;;;;;;5018602;28;20414;-72
2021/12/29 11:58:36;;;;;;;232.60;110.97;;;;;;;;;;5017949;28;20026;-72
2021/12/29 12:01:18;;;;;;;242.15;114.00;;;;;;;;;;5018975;28;20101;-72
2021/12/29 12:04:02;;;;;;;264.02;122.03;;;;;;;;;;5018693;28;20076;-72
2021/12/29 12:06:42;;;;;;;264.33;118.18;;;;;;;;;;5018818;28;20025;-71
2021/12/29 12:09:25;;;;;;;277.30;127.13;;;;;;;;;;5017139;28;20030;-72
2021/12/29 12:11:59;;;;;;;268.52;122.10;;;;;;;;;;5018482;28;20033;-71
2021/12/29 12:14:36;;;;;;;275.85;124.53;;;;;;;;;;5018704;28;20101;-71
2021/12/29 12:17:12;;;;;;;266.10;123.60;;;;;;;;;;5018307;28;20022;-71
2021/12/29 12:19:41;;;;;;;272.77;128.82;;;;;;;;;;5020187;28;20058;-71
2021/12/29 12:22:07;;;;;;;266.08;124.80;;;;;;;;;;5019423;28;20061;-72
2021/12/29 12:24:35;;;;;;;281.33;133.38;;;;;;;;;;5018403;28;20054;-72
2021/12/29 12:27:10;;;;;;;296.85;141.45;;;;;;;;;;5018215;28;20373;-72
2021/12/29 12:29:44;;;;;;;288.50;135.68;;;;;;;;;;5018486;28;20321;-71
2021/12/29 12:32:18;;;;;;;289.35;138.40;;;;;;;;;;5018061;28;20022;-72
2021/12/29 12:34:57;;;;;;;302.40;137.98;;;;;;;;;;4977781;28;20058;-71
2021/12/29 12:37:39;;;;;;;321.13;139.82;;;;;;;;;;4939530;29;20036;-71
2021/12/29 12:40:14;;;;;;;281.58;131.82;;;;;;;;;;4938702;29;20043;-70
2021/12/29 12:43:02;;;;;;;288.05;134.63;;;;;;;;;;4938736;29;20032;-72
2021/12/29 12:45:34;;;;;;;299.85;144.48;;;;;;;;;;4922599;29;20134;-71
2021/12/29 12:48:09;;;;;;;305.90;141.85;;;;;;;;;;4921996;29;20354;-72
2021/12/29 12:50:38;;;;;;;301.23;143.95;;;;;;;;;;4939068;29;20139;-71
2021/12/29 12:53:05;;;;;;;325.27;154.57;;;;;;;;;;4938569;29;20032;-71
2021/12/29 12:55:43;;;;;;;326.40;155.13;;;;;;;;;;4938777;29;20126;-71
2021/12/29 12:58:11;;;;;;;353.33;166.23;;;;;;;;;;4922803;29;20046;-72
2021/12/29 13:00:42;;;;;;;348.40;167.73;;;;;;;;;;4938305;29;20053;-71
2021/12/29 13:03:10;;;;;;;361.88;173.50;;;;;;;;;;4938167;29;20115;-71
2021/12/29 13:05:42;;;;;;;377.00;182.80;;;;;;;;;;4956198;28;20353;-72
2021/12/29 13:08:17;;;;;;;376.92;184.40;;;;;;;;;;4981810;28;20037;-71
2021/12/29 13:11:02;;;;;;;409.08;193.60;;;;;;;;;;5017136;28;20030;-71
2021/12/29 13:13:37;;;;;;;390.13;194.57;;;;;;;;;;5017966;28;20029;-71
2021/12/29 13:16:09;;;;;;;383.35;189.15;;;;;;;;;;5016410;28;20029;-71
2021/12/29 13:18:37;;;;;;;390.92;198.23;;;;;;;;;;5017828;28;20354;-71
2021/12/29 13:21:15;;;;;;;398.63;200.38;;;;;;;;;;5016804;28;20040;-71
2021/12/29 13:23:45;;;;;;;476.25;239.00;;;;;;;;;;5015555;28;20073;-71
2021/12/29 13:26:13;;;;;;;461.90;226.52;;;;;;;;;;5016781;28;20026;-71
2021/12/29 13:28:41;;;;;;;459.48;238.80;;;;;;;;;;5016016;28;20084;-71
2021/12/29 13:31:16;;;;;;;493.92;248.85;;;;;;;;;;5001625;28;20050;-70
2021/12/29 13:33:50;;;;;;;520.58;267.05;;;;;;;;;;5017767;28;20056;-71
2021/12/29 13:36:21;;;;;;;523.05;267.98;;;;;;;;;;5018003;28;20053;-71
2021/12/29 13:38:55;;;;;;;502.80;263.23;;;;;;;;;;5017317;28;20025;-70
2021/12/29 13:41:28;;;;;;;510.45;265.67;;;;;;;;;;5017666;28;20123;-71
2021/12/29 13:43:58;;;;;;;510.40;263.25;;;;;;;;;;5017180;28;20021;-72
2021/12/29 13:46:28;;;;;;;510.67;268.23;;;;;;;;;;5017127;28;20029;-71
2021/12/29 13:48:57;;;;;;;502.42;261.33;;;;;;;;;;5017888;28;20032;-71
2021/12/29 13:51:31;;;;;;;465.10;233.25;;;;;;;;;;5016972;28;20307;-71
2021/12/29 13:54:01;;;;;;;430.67;216.80;;;;;;;;;;5017713;28;20033;-72
2021/12/29 13:56:31;;;;;;;395.15;192.23;;;;;;;;;;5018490;28;20018;-70
2021/12/29 13:59:12;;;;;;;415.10;200.88;;;;;;;;;;5017006;28;20089;-70
2021/12/29 14:01:41;;;;;;;418.63;207.85;;;;;;;;;;5017363;28;20029;-69
2021/12/29 14:04:12;;;;;;;513.60;243.15;;;;;;;;;;5021025;28;20049;-70
2021/12/29 14:06:39;;;;;;;495.67;243.00;;;;;;;;;;5017719;28;20385;-71
2021/12/29 14:09:10;;;;;;;531.80;256.20;;;;;;;;;;5015528;28;20109;-71
2021/12/29 14:11:38;;;;;;;522.85;250.75;;;;;;;;;;5016723;28;20018;-70
2021/12/29 14:14:06;;;;;;;529.55;255.95;;;;;;;;;;5017210;28;20469;-70
2021/12/29 14:16:53;;;;;;;602.53;282.15;;;;;;;;;;5016447;28;20326;-70
2021/12/29 14:19:24;;;;;;;596.28;286.77;;;;;;;;;;5015306;28;20036;-70
2021/12/29 14:21:51;;;;;;;576.03;268.23;;;;;;;;;;5015999;28;20465;-70
2021/12/29 14:24:18;;;;;;;561.83;261.13;;;;;;;;;;5016892;28;20044;-70
2021/12/29 14:26:59;;;;;;;582.38;267.45;;;;;;;;;;5015796;28;20414;-70
2021/12/29 14:29:38;;;;;;;570.45;267.85;;;;;;;;;;5015715;28;20028;-70
2021/12/29 14:32:09;;;;;;;597.55;286.58;;;;;;;;;;5016274;28;20022;-70